Time;durP1;ratioP1;P1;durP2;ratioP2;P2;SDS_P1;SDS_P2;PMS_P1;PMS_P2;Temp;Humidity;BMP_temperature;BMP_pressure;BME280_temperature;BME280_humidity;BME280_pressure;Samples;Min_cycle;Max_cycle;Signal;HPM_P1;HPM_P2
2023/05/13 00:02:01;;;;;;;9.93;9.63;;;9.50;99.90;;;;;;4929227;29;20250;-85
2023/05/13 00:04:33;;;;;;;10.10;9.80;;;9.40;99.90;;;;;;4929319;29;20231;-86
2023/05/13 00:07:09;;;;;;;10.10;9.80;;;9.40;99.90;;;;;;4929482;29;20231;-86
2023/05/13 00:09:39;;;;;;;10.00;9.70;;;9.40;99.90;;;;;;4929487;29;20227;-85
2023/05/13 00:12:35;;;;;;;;;;;;;;;;;;;;;
2023/05/13 00:15:19;;;;;;;10.00;9.70;;;9.40;99.90;;;;;;4929329;29;20235;-86
2023/05/13 00:17:54;;;;;;;9.90;9.60;;;9.40;99.90;;;;;;4928687;29;20232;-85
2023/05/13 00:20:31;;;;;;;9.90;9.60;;;9.40;99.90;;;;;;4928758;29;20259;-85
2023/05/13 00:23:19;;;;;;;9.90;9.60;;;9.40;99.90;;;;;;4929504;29;20237;-86
2023/05/13 00:26:03;;;;;;;9.77;9.47;;;9.40;99.90;;;;;;4929003;29;20267;-85
2023/05/13 00:31:30;;;;;;;9.60;9.30;;;9.40;99.90;;;;;;4934931;29;20291;-85
2023/05/13 00:34:07;;;;;;;9.60;9.30;;;9.40;99.90;;;;;;4930301;29;20255;-85
2023/05/13 00:36:46;;;;;;;9.47;9.17;;;9.40;99.90;;;;;;4929380;29;20239;-85
2023/05/13 00:39:25;;;;;;;9.40;9.10;;;9.40;99.90;;;;;;4929805;29;20314;-86
2023/05/13 00:42:05;;;;;;;;;;;;;;;;;;;;;
2023/05/13 00:44:35;;;;;;;9.60;9.30;;;9.30;99.90;;;;;;4927556;29;20258;-86
2023/05/13 00:47:11;;;;;;;9.60;9.30;;;9.30;99.90;;;;;;4928459;29;20231;-86
2023/05/13 00:49:41;;;;;;;9.40;9.10;;;9.30;99.90;;;;;;4928455;29;20231;-86
2023/05/13 00:52:09;;;;;;;9.60;9.30;;;9.20;99.90;;;;;;4928456;29;20234;-85
2023/05/13 00:54:38;;;;;;;9.43;9.13;;;9.20;99.90;;;;;;4928577;29;20268;-85
2023/05/13 00:57:16;;;;;;;9.40;9.10;;;9.20;99.90;;;;;;4928308;29;20256;-85
2023/05/13 00:59:46;;;;;;;9.60;9.30;;;9.20;99.90;;;;;;4928730;29;20226;-86
2023/05/13 01:05:55;;;;;;;9.80;9.50;;;9.20;99.90;;;;;;4928862;29;20243;-86
2023/05/13 01:08:54;;;;;;;9.57;9.27;;;9.20;99.90;;;;;;4939641;28;20288;-85
2023/05/13 01:11:43;;;;;;;9.60;9.30;;;9.10;99.90;;;;;;4942713;28;20236;-84
2023/05/13 01:14:18;;;;;;;9.37;9.07;;;9.10;99.90;;;;;;4932549;29;20243;-86
2023/05/13 01:17:02;;;;;;;9.03;8.73;;;9.10;99.90;;;;;;4929287;29;20314;-85
2023/05/13 01:19:44;;;;;;;9.30;9.00;;;9.10;99.90;;;;;;4929067;29;20290;-85
2023/05/13 01:22:20;;;;;;;9.20;8.90;;;9.00;99.90;;;;;;4928528;29;20223;-86
2023/05/13 01:24:52;;;;;;;8.70;8.50;;;9.00;99.90;;;;;;4928950;29;20239;-85
2023/05/13 01:27:22;;;;;;;9.10;8.80;;;8.90;99.90;;;;;;4929899;29;20253;-85
2023/05/13 01:29:59;;;;;;;9.23;8.93;;;8.90;99.90;;;;;;4928144;29;20243;-87
2023/05/13 01:32:38;;;;;;;9.10;8.80;;;8.90;99.90;;;;;;4927589;29;20224;-86
2023/05/13 01:38:08;;;;;;;9.20;8.90;;;8.90;99.90;;;;;;4927565;29;21148;-86
2023/05/13 01:40:37;;;;;;;9.10;8.80;;;8.80;99.90;;;;;;4927552;29;20227;-86
2023/05/13 01:43:17;;;;;;;9.20;8.90;;;8.80;99.90;;;;;;4927893;29;20226;-86
2023/05/13 01:45:59;;;;;;;9.10;8.80;;;8.80;99.90;;;;;;4930131;29;20243;-87
2023/05/13 01:48:32;;;;;;;9.10;8.80;;;8.70;99.90;;;;;;4930381;29;20238;-86
2023/05/13 01:54:04;;;;;;;9.27;8.97;;;8.70;99.90;;;;;;4924995;29;20255;-87
2023/05/13 01:56:38;;;;;;;8.80;8.60;;;8.70;99.90;;;;;;4927819;29;20243;-85
2023/05/13 01:59:14;;;;;;;9.13;8.83;;;8.60;99.90;;;;;;4927703;29;20243;-86
2023/05/13 02:01:44;;;;;;;9.03;8.73;;;8.50;99.90;;;;;;4928301;29;20230;-86
2023/05/13 02:04:15;;;;;;;8.63;8.43;;;8.50;99.90;;;;;;4926749;29;20253;-86
2023/05/13 02:06:43;;;;;;;9.00;8.70;;;8.50;99.90;;;;;;4927112;29;20302;-86
2023/05/13 02:09:58;;;;;;;8.83;8.57;;;8.50;99.90;;;;;;4926591;29;20240;-86
2023/05/13 02:12:44;;;;;;;8.70;8.50;;;8.50;99.90;;;;;;4926695;29;20250;-86
2023/05/13 02:15:24;;;;;;;8.93;8.67;;;8.50;99.90;;;;;;4926570;29;20216;-86
2023/05/13 02:20:51;;;;;;;9.10;8.80;;;8.40;99.90;;;;;;4925945;29;20247;-86
2023/05/13 02:23:19;;;;;;;8.70;8.50;;;8.30;99.90;;;;;;4925786;29;20235;-86
2023/05/13 02:25:47;;;;;;;9.10;8.80;;;8.30;99.90;;;;;;4926766;29;20243;-86
2023/05/13 02:28:26;;;;;;;8.70;8.50;;;8.30;99.90;;;;;;4929907;29;20260;-86
2023/05/13 02:30:56;;;;;;;9.00;8.70;;;8.30;99.90;;;;;;4930576;29;20609;-86
2023/05/13 02:33:23;;;;;;;8.90;8.60;;;8.40;99.90;;;;;;4933173;28;20565;-85
2023/05/13 02:35:54;;;;;;;8.90;8.60;;;8.40;99.90;;;;;;4944753;28;20212;-83
2023/05/13 02:38:25;;;;;;;8.43;8.23;;;8.40;99.90;;;;;;4933418;29;20240;-86
2023/05/13 02:43:58;;;;;;;8.50;8.30;;;8.40;99.90;;;;;;4939806;29;20290;-86
2023/05/13 02:46:30;;;;;;;8.37;8.17;;;8.50;99.90;;;;;;4940208;28;20214;-84
2023/05/13 02:49:00;;;;;;;8.40;8.20;;;8.50;99.90;;;;;;4945040;28;20250;-84
2023/05/13 02:51:30;;;;;;;8.40;8.20;;;8.50;99.90;;;;;;4945050;28;20237;-84
2023/05/13 02:54:03;;;;;;;8.20;8.00;;;8.60;99.90;;;;;;4938613;28;20263;-86
2023/05/13 02:56:33;;;;;;;8.70;8.50;;;8.60;99.90;;;;;;4932262;29;20280;-86
2023/05/13 02:59:12;;;;;;;8.63;8.43;;;8.60;99.90;;;;;;4929688;29;20236;-86
2023/05/13 03:04:27;;;;;;;8.50;8.30;;;8.60;99.90;;;;;;4928283;29;20285;-86
2023/05/13 03:06:57;;;;;;;8.53;8.33;;;8.60;99.90;;;;;;4929483;29;20236;-86
2023/05/13 03:09:38;;;;;;;8.60;8.40;;;8.60;99.90;;;;;;4929488;29;20282;-84
2023/05/13 03:17:40;;;;;;;8.83;8.53;;;8.60;99.90;;;;;;4927958;29;20244;-86
2023/05/13 03:20:11;;;;;;;8.97;8.67;;;8.50;99.90;;;;;;4929052;29;20238;-86
2023/05/13 03:22:49;;;;;;;9.17;8.87;;;8.30;99.90;;;;;;4929781;29;20239;-86
2023/05/13 03:25:18;;;;;;;9.60;9.30;;;8.20;99.90;;;;;;4931239;29;20278;-86
2023/05/13 03:27:49;;;;;;;9.33;9.03;;;8.20;99.90;;;;;;4929511;29;20314;-86
2023/05/13 03:30:25;;;;;;;9.60;9.30;;;8.20;99.90;;;;;;4929457;29;20319;-86
2023/05/13 03:32:55;;;;;;;9.93;9.63;;;8.20;99.90;;;;;;4928759;29;20241;-86
2023/05/13 03:35:25;;;;;;;9.80;9.50;;;8.20;99.90;;;;;;4928578;29;20256;-86
2023/05/13 03:37:56;;;;;;;9.90;9.60;;;8.20;99.90;;;;;;4928353;29;20227;-86
2023/05/13 03:40:24;;;;;;;9.70;9.40;;;8.30;99.90;;;;;;4929148;29;20286;-86
2023/05/13 03:42:53;;;;;;;10.03;9.73;;;8.40;99.90;;;;;;4929352;29;20240;-86
2023/05/13 03:45:28;;;;;;;9.57;9.27;;;8.40;99.90;;;;;;4928487;29;20263;-86
2023/05/13 03:47:58;;;;;;;9.50;9.20;;;8.50;99.90;;;;;;4928566;29;20353;-86
2023/05/13 03:50:31;;;;;;;9.17;8.87;;;8.50;99.90;;;;;;4929167;29;20243;-86
2023/05/13 03:52:59;;;;;;;9.47;9.17;;;8.60;99.90;;;;;;4928969;29;20239;-86
2023/05/13 03:55:27;;;;;;;9.63;9.33;;;8.60;99.90;;;;;;4929472;29;20338;-86
2023/05/13 03:57:57;;;;;;;9.33;9.03;;;8.70;99.90;;;;;;4929407;29;20259;-86
2023/05/13 04:00:36;;;;;;;9.40;9.10;;;8.60;99.90;;;;;;4929715;29;20247;-86
2023/05/13 04:06:00;;;;;;;9.33;9.03;;;8.70;99.90;;;;;;4929313;29;20223;-86
2023/05/13 04:08:36;;;;;;;9.50;9.20;;;8.80;99.90;;;;;;4928916;29;20238;-86
2023/05/13 04:11:09;;;;;;;9.60;9.30;;;8.90;99.90;;;;;;4928986;29;20234;-86
2023/05/13 04:13:39;;;;;;;9.50;9.20;;;8.90;99.90;;;;;;4929918;29;20267;-86
2023/05/13 04:16:16;;;;;;;9.40;9.10;;;8.90;99.90;;;;;;4928940;29;20333;-88
2023/05/13 04:18:49;;;;;;;9.30;9.00;;;9.00;99.90;;;;;;4929158;29;20310;-87
2023/05/13 04:21:27;;;;;;;9.07;8.77;;;9.00;99.90;;;;;;4929129;29;20264;-86
2023/05/13 04:23:58;;;;;;;9.13;8.83;;;9.10;99.90;;;;;;4929151;29;20251;-87
2023/05/13 04:26:31;;;;;;;9.47;9.17;;;9.10;99.90;;;;;;4929068;29;20291;-86
2023/05/13 04:29:03;;;;;;;9.40;9.10;;;9.10;99.90;;;;;;4928307;29;20355;-86
2023/05/13 04:34:28;;;;;;;9.30;9.00;;;9.20;99.90;;;;;;4926283;29;20238;-86
2023/05/13 04:37:07;;;;;;;9.33;9.03;;;9.30;99.90;;;;;;4928285;29;20235;-86
2023/05/13 04:39:35;;;;;;;9.60;9.30;;;9.30;99.90;;;;;;4932366;29;20306;-86
2023/05/13 04:42:25;;;;;;;9.40;9.10;;;9.30;99.90;;;;;;4941981;28;20239;-85
2023/05/13 04:44:53;;;;;;;9.50;9.20;;;9.30;99.90;;;;;;4950061;23;20247;-77
2023/05/13 04:47:22;;;;;;;9.67;9.37;;;9.40;99.90;;;;;;4924644;29;20239;-77
2023/05/13 04:49:49;;;;;;;9.70;9.40;;;9.40;99.90;;;;;;4924121;29;20232;-77
2023/05/13 04:52:18;;;;;;;9.93;9.63;;;9.40;99.90;;;;;;4925431;29;20259;-78
2023/05/13 04:54:46;;;;;;;9.80;9.50;;;9.40;99.90;;;;;;4926536;29;20244;-78
2023/05/13 04:57:13;;;;;;;9.80;9.50;;;9.50;99.90;;;;;;4925081;29;20339;-77
2023/05/13 04:59:41;;;;;;;9.77;9.47;;;9.60;99.90;;;;;;4924905;29;20247;-77
2023/05/13 05:02:08;;;;;;;9.90;9.60;;;9.70;99.90;;;;;;4924879;29;20243;-77
2023/05/13 05:04:38;;;;;;;10.07;9.77;;;9.80;99.90;;;;;;4925682;29;20299;-78
2023/05/13 05:07:06;;;;;;;9.50;9.20;;;9.80;99.90;;;;;;4928754;29;20242;-80
2023/05/13 05:09:33;;;;;;;9.77;9.47;;;9.90;99.90;;;;;;4925267;29;20267;-77
2023/05/13 05:12:01;;;;;;;9.60;9.30;;;10.00;99.90;;;;;;4925294;29;20303;-78
2023/05/13 05:14:28;;;;;;;9.50;9.20;;;10.10;99.90;;;;;;4924840;29;20254;-77
2023/05/13 05:16:55;;;;;;;9.60;9.30;;;10.10;99.90;;;;;;4924994;29;20303;-78
2023/05/13 05:19:24;;;;;;;9.70;9.40;;;10.20;99.90;;;;;;4924970;29;20251;-78
2023/05/13 05:21:53;;;;;;;9.57;9.27;;;10.30;99.90;;;;;;4924602;29;20246;-78
2023/05/13 05:24:20;;;;;;;9.60;9.30;;;10.40;99.90;;;;;;4924955;29;20238;-79
2023/05/13 05:26:48;;;;;;;9.80;9.50;;;10.30;99.90;;;;;;4925232;29;20296;-78
2023/05/13 05:29:15;;;;;;;10.00;9.70;;;10.40;99.90;;;;;;4926080;29;20234;-78
2023/05/13 05:31:43;;;;;;;9.87;9.57;;;10.50;99.90;;;;;;4927790;29;20258;-78
2023/05/13 05:34:11;;;;;;;10.07;9.77;;;10.60;99.90;;;;;;4926214;29;20338;-79
2023/05/13 05:36:38;;;;;;;10.27;9.97;;;10.70;99.90;;;;;;4925442;29;20232;-78
2023/05/13 05:39:07;;;;;;;10.00;9.70;;;10.70;99.90;;;;;;4925373;29;20227;-78
2023/05/13 05:41:36;;;;;;;10.00;9.70;;;10.80;99.90;;;;;;4925195;29;20246;-78
2023/05/13 05:44:03;;;;;;;10.20;9.90;;;10.80;99.90;;;;;;4924882;29;20259;-78
2023/05/13 05:46:31;;;;;;;10.00;9.70;;;10.90;99.90;;;;;;4924707;29;20339;-78
2023/05/13 05:48:58;;;;;;;9.90;9.60;;;11.00;99.90;;;;;;4924745;29;20231;-78
2023/05/13 05:51:26;;;;;;;10.13;9.83;;;11.00;99.90;;;;;;4925177;29;20241;-79
2023/05/13 05:53:54;;;;;;;9.90;9.60;;;11.20;99.90;;;;;;4925196;29;20240;-78
2023/05/13 05:56:23;;;;;;;10.10;9.80;;;11.20;99.90;;;;;;4924690;29;20255;-78
2023/05/13 05:58:51;;;;;;;10.20;9.90;;;11.40;99.90;;;;;;4924772;29;20289;-79
2023/05/13 06:01:18;;;;;;;9.73;9.43;;;11.50;99.90;;;;;;4930475;29;20243;-78
2023/05/13 06:03:46;;;;;;;9.83;9.53;;;11.60;99.90;;;;;;4930059;29;20239;-79
2023/05/13 06:06:14;;;;;;;9.97;9.67;;;11.60;99.90;;;;;;4928102;29;20243;-78
2023/05/13 06:08:42;;;;;;;9.80;9.50;;;11.60;99.90;;;;;;4929565;29;20251;-78
2023/05/13 06:11:09;;;;;;;9.70;9.40;;;11.70;99.90;;;;;;4935479;29;20242;-79
2023/05/13 06:13:39;;;;;;;10.00;9.70;;;11.80;99.90;;;;;;4932942;29;20287;-78
2023/05/13 06:16:07;;;;;;;9.87;9.57;;;11.80;99.90;;;;;;4931691;29;20243;-79
2023/05/13 06:18:35;;;;;;;10.10;9.80;;;11.90;99.90;;;;;;4940884;29;20230;-77
2023/05/13 06:21:02;;;;;;;9.80;9.50;;;12.00;99.90;;;;;;4939577;29;20266;-76
2023/05/13 06:23:30;;;;;;;9.90;9.60;;;12.20;99.90;;;;;;4942076;28;20220;-79
2023/05/13 06:25:58;;;;;;;10.00;9.70;;;12.30;99.90;;;;;;4943519;28;20303;-80
2023/05/13 06:28:27;;;;;;;10.10;9.80;;;12.40;99.90;;;;;;4944414;28;20260;-79
2023/05/13 06:30:57;;;;;;;10.20;9.90;;;12.50;99.90;;;;;;4945141;28;20228;-80
2023/05/13 06:33:24;;;;;;;10.10;9.80;;;12.50;99.90;;;;;;4944428;29;20239;-79
2023/05/13 06:35:53;;;;;;;10.75;10.45;;;12.60;99.90;;;;;;4940437;28;20394;-79
2023/05/13 06:38:21;;;;;;;10.40;10.10;;;12.70;99.90;;;;;;4933502;29;20224;-80
2023/05/13 06:40:49;;;;;;;10.23;9.93;;;12.80;99.90;;;;;;4930535;28;20279;-81
2023/05/13 06:43:17;;;;;;;10.33;10.03;;;13.00;99.90;;;;;;4937496;29;20246;-80
2023/05/13 06:45:44;;;;;;;10.70;10.40;;;13.00;99.90;;;;;;4938329;29;20267;-80
2023/05/13 06:48:14;;;;;;;10.60;10.30;;;13.10;99.90;;;;;;4938258;29;20295;-81
2023/05/13 06:50:42;;;;;;;10.60;10.30;;;13.20;99.90;;;;;;4937243;29;20235;-82
2023/05/13 06:53:11;;;;;;;10.53;10.23;;;13.30;99.90;;;;;;4939174;29;20231;-81
2023/05/13 06:55:40;;;;;;;10.30;10.00;;;13.20;99.90;;;;;;4939258;29;20317;-80
2023/05/13 06:58:08;;;;;;;10.40;10.10;;;13.30;99.90;;;;;;4938764;29;20267;-81
2023/05/13 07:00:38;;;;;;;10.50;10.20;;;13.20;99.90;;;;;;4935409;29;20235;-81
2023/05/13 07:03:07;;;;;;;10.43;10.13;;;13.00;99.90;;;;;;4938030;29;20220;-80
2023/05/13 07:05:37;;;;;;;10.27;9.97;;;13.00;99.90;;;;;;4938196;29;20243;-80
2023/05/13 07:08:07;;;;;;;10.20;9.90;;;13.00;99.90;;;;;;4934805;29;20236;-81
2023/05/13 07:10:35;;;;;;;10.10;9.80;;;13.00;99.90;;;;;;4931538;29;20280;-80
2023/05/13 07:13:03;;;;;;;10.50;10.20;;;13.10;99.90;;;;;;4929576;29;20242;-80
2023/05/13 07:15:31;;;;;;;10.23;9.93;;;13.10;99.90;;;;;;4929639;29;20242;-80
2023/05/13 07:17:59;;;;;;;10.30;10.00;;;13.10;99.90;;;;;;4929589;29;20292;-80
2023/05/13 07:20:27;;;;;;;10.20;9.90;;;13.10;99.90;;;;;;4930339;29;20322;-80
2023/05/13 07:22:58;;;;;;;9.93;9.63;;;13.20;99.90;;;;;;4930068;29;20235;-81
2023/05/13 07:25:26;;;;;;;10.20;9.90;;;13.20;99.90;;;;;;4930299;29;20250;-80
2023/05/13 07:27:54;;;;;;;10.27;9.97;;;13.20;99.90;;;;;;4929822;29;20315;-80
2023/05/13 07:30:22;;;;;;;10.50;10.20;;;13.10;99.90;;;;;;4930443;29;20236;-81
2023/05/13 07:32:50;;;;;;;10.40;10.10;;;13.10;99.90;;;;;;4929539;29;20239;-80
2023/05/13 07:35:18;;;;;;;10.20;9.90;;;13.20;99.90;;;;;;4929364;29;20231;-81
2023/05/13 07:37:46;;;;;;;10.03;9.73;;;13.30;99.90;;;;;;4929974;29;20248;-80
2023/05/13 07:40:16;;;;;;;10.27;9.97;;;13.30;99.90;;;;;;4931899;29;20248;-81
2023/05/13 07:42:44;;;;;;;10.33;10.03;;;13.20;99.90;;;;;;4930578;29;20233;-81
2023/05/13 07:45:12;;;;;;;10.20;9.90;;;13.10;99.90;;;;;;4930227;29;20247;-81
2023/05/13 07:47:40;;;;;;;10.30;10.00;;;13.10;99.90;;;;;;4930260;29;20235;-81
2023/05/13 07:50:08;;;;;;;10.27;9.97;;;13.00;99.90;;;;;;4931807;28;20241;-81
2023/05/13 07:52:36;;;;;;;10.40;10.10;;;13.00;99.90;;;;;;4932598;28;20227;-81
2023/05/13 07:55:05;;;;;;;10.53;10.23;;;12.90;99.90;;;;;;4927879;29;20243;-81
2023/05/13 07:57:39;;;;;;;10.47;10.17;;;12.90;99.90;;;;;;4929299;29;20243;-80
2023/05/13 08:00:08;;;;;;;10.53;10.23;;;12.90;99.90;;;;;;4929338;29;20242;-81
2023/05/13 08:02:39;;;;;;;10.00;9.70;;;12.90;99.90;;;;;;4929684;29;20307;-80
2023/05/13 08:05:08;;;;;;;10.23;9.93;;;13.00;99.90;;;;;;4936058;28;20251;-80
2023/05/13 08:07:36;;;;;;;10.20;9.90;;;12.90;99.90;;;;;;4927847;29;20223;-81
2023/05/13 08:10:06;;;;;;;10.20;9.90;;;12.90;99.90;;;;;;4929148;29;20235;-81
2023/05/13 08:12:35;;;;;;;10.27;9.97;;;12.90;99.90;;;;;;4930069;29;20255;-82
2023/05/13 08:15:04;;;;;;;10.00;9.70;;;12.90;99.90;;;;;;4930097;29;20318;-81
2023/05/13 08:17:31;;;;;;;10.00;9.70;;;13.00;99.90;;;;;;4930658;29;20230;-80
2023/05/13 08:19:59;;;;;;;10.13;9.83;;;13.00;99.90;;;;;;4930363;29;20266;-81
2023/05/13 08:22:27;;;;;;;10.13;9.83;;;13.10;99.90;;;;;;4930328;29;20296;-81
2023/05/13 08:24:55;;;;;;;10.20;9.90;;;13.10;99.90;;;;;;4928990;29;20246;-81
2023/05/13 08:27:23;;;;;;;10.07;9.77;;;13.00;99.90;;;;;;4929246;29;20223;-81
2023/05/13 08:29:53;;;;;;;10.00;9.70;;;13.10;99.90;;;;;;4928385;29;20265;-81
2023/05/13 08:32:23;;;;;;;9.97;9.67;;;13.00;99.90;;;;;;4930234;29;20291;-81
2023/05/13 08:34:52;;;;;;;9.80;9.50;;;13.10;99.90;;;;;;4928059;29;20246;-81
2023/05/13 08:37:20;;;;;;;9.70;9.40;;;13.10;99.90;;;;;;4928896;29;20305;-81
2023/05/13 08:39:48;;;;;;;9.87;9.57;;;13.10;99.90;;;;;;4929346;29;20277;-81
2023/05/13 08:42:20;;;;;;;9.90;9.60;;;13.20;99.90;;;;;;4929015;29;20357;-81
2023/05/13 08:44:49;;;;;;;9.60;9.30;;;13.20;99.90;;;;;;4928953;29;20251;-81
2023/05/13 08:47:32;;;;;;;9.90;9.60;;;13.20;99.90;;;;;;4933633;28;20239;-81
2023/05/13 08:50:00;;;;;;;9.87;9.57;;;13.20;99.90;;;;;;4927529;29;20258;-81
2023/05/13 08:52:28;;;;;;;9.90;9.60;;;13.10;99.90;;;;;;4928323;29;20287;-81
2023/05/13 08:54:59;;;;;;;9.73;9.43;;;13.10;99.90;;;;;;4928274;29;20243;-81
2023/05/13 08:57:28;;;;;;;9.60;9.30;;;13.10;99.90;;;;;;4928642;29;20266;-81
2023/05/13 08:59:55;;;;;;;9.70;9.40;;;13.20;99.90;;;;;;4928297;29;20247;-80
2023/05/13 09:02:26;;;;;;;9.60;9.30;;;13.20;99.90;;;;;;4928124;29;20732;-83
2023/05/13 09:04:59;;;;;;;9.83;9.53;;;13.30;99.90;;;;;;4928315;29;20272;-81
2023/05/13 09:07:27;;;;;;;10.17;9.87;;;13.30;99.90;;;;;;4927586;29;20256;-78
2023/05/13 09:09:55;;;;;;;10.03;9.73;;;13.30;99.90;;;;;;4930028;29;20260;-79
2023/05/13 09:12:48;;;;;;;10.10;9.80;;;13.40;99.90;;;;;;4928374;29;20295;-79
2023/05/13 09:15:18;;;;;;;10.03;9.73;;;13.50;99.90;;;;;;4927113;29;20297;-79
2023/05/13 09:17:51;;;;;;;10.03;9.73;;;13.60;99.90;;;;;;4927740;29;20231;-79
2023/05/13 09:20:20;;;;;;;10.10;9.80;;;13.80;99.90;;;;;;4927134;29;20246;-79
2023/05/13 09:22:50;;;;;;;9.90;9.60;;;13.90;99.90;;;;;;4927713;29;20259;-79
2023/05/13 09:25:19;;;;;;;10.30;10.00;;;14.00;99.90;;;;;;4926511;29;20736;-79
2023/05/13 09:27:50;;;;;;;10.10;9.80;;;14.00;99.90;;;;;;4927158;29;20319;-80
2023/05/13 09:30:20;;;;;;;10.13;9.83;;;14.00;99.90;;;;;;4926726;29;20234;-79
2023/05/13 09:33:10;;;;;;;10.20;9.90;;;14.00;99.90;;;;;;4926601;29;20326;-79
2023/05/13 09:35:41;;;;;;;10.20;9.90;;;14.00;99.90;;;;;;4909113;29;20231;-79
2023/05/13 09:41:00;;;;;;;10.07;9.77;;;14.00;99.90;;;;;;4930254;29;20235;-82
2023/05/13 09:43:31;;;;;;;10.10;9.80;;;14.00;99.90;;;;;;4930874;29;20235;-82
2023/05/13 09:46:07;;;;;;;10.13;9.83;;;14.00;99.90;;;;;;4930192;29;20306;-83
2023/05/13 09:48:42;;;;;;;10.00;9.70;;;14.10;99.90;;;;;;4930879;29;20274;-80
2023/05/13 09:51:11;;;;;;;9.93;9.63;;;14.20;99.90;;;;;;4929079;29;20241;-80
2023/05/13 09:53:41;;;;;;;9.87;9.57;;;14.20;99.90;;;;;;4919888;29;20361;-79
2023/05/13 09:56:11;;;;;;;10.20;9.90;;;14.20;99.90;;;;;;4927353;29;20299;-80
2023/05/13 09:58:39;;;;;;;10.20;9.90;;;14.10;99.90;;;;;;4927843;29;20259;-80
2023/05/13 10:01:06;;;;;;;10.30;10.00;;;14.10;99.90;;;;;;4933701;29;20279;-80
2023/05/13 10:03:36;;;;;;;9.87;9.57;;;14.00;99.90;;;;;;4927034;29;20258;-80
2023/05/13 10:06:05;;;;;;;10.10;9.80;;;14.00;99.90;;;;;;4926483;29;20280;-79
2023/05/13 10:08:34;;;;;;;9.90;9.60;;;13.80;99.90;;;;;;4926726;29;20258;-80
2023/05/13 10:11:03;;;;;;;10.10;9.80;;;13.80;99.90;;;;;;4926382;29;20238;-80
2023/05/13 10:13:33;;;;;;;9.90;9.60;;;13.70;99.90;;;;;;4926474;29;20269;-79
2023/05/13 10:16:00;;;;;;;9.63;9.33;;;13.70;99.90;;;;;;4925137;29;20249;-80
2023/05/13 10:18:28;;;;;;;9.90;9.60;;;13.70;99.90;;;;;;4925144;29;20236;-79
2023/05/13 10:20:57;;;;;;;10.00;9.70;;;13.70;99.90;;;;;;4925916;29;20334;-79
2023/05/13 10:23:27;;;;;;;9.90;9.60;;;13.70;99.90;;;;;;4925364;29;20266;-80
2023/05/13 10:25:55;;;;;;;9.70;9.40;;;13.70;99.90;;;;;;4926074;29;20247;-79
2023/05/13 10:28:23;;;;;;;9.70;9.40;;;13.70;99.90;;;;;;4925378;29;20326;-79
2023/05/13 10:30:51;;;;;;;10.13;9.83;;;13.70;99.90;;;;;;4925956;29;20271;-79
2023/05/13 10:33:19;;;;;;;10.13;9.83;;;13.70;99.90;;;;;;4927088;29;20264;-80
2023/05/13 10:36:02;;;;;;;10.10;9.80;;;13.70;99.90;;;;;;4926310;29;20310;-80
2023/05/13 10:38:49;;;;;;;10.20;9.90;;;13.80;99.90;;;;;;4924548;29;20295;-80
2023/05/13 10:41:42;;;;;;;9.87;9.57;;;13.80;99.90;;;;;;4925784;29;20311;-80
2023/05/13 10:44:11;;;;;;;10.00;9.70;;;13.90;99.90;;;;;;4928715;29;20236;-80
2023/05/13 10:46:38;;;;;;;9.97;9.67;;;13.90;99.90;;;;;;4930007;29;20231;-80
2023/05/13 10:49:06;;;;;;;10.10;9.80;;;13.80;99.90;;;;;;4930246;29;20211;-79
2023/05/13 10:51:35;;;;;;;10.17;9.87;;;13.80;99.90;;;;;;4930419;29;20338;-79
2023/05/13 10:54:03;;;;;;;9.93;9.63;;;13.80;99.90;;;;;;4928846;29;20246;-79
2023/05/13 10:56:30;;;;;;;10.20;9.90;;;13.80;99.90;;;;;;4927962;29;20281;-79
2023/05/13 10:59:01;;;;;;;10.20;9.90;;;13.90;99.90;;;;;;4927614;29;20296;-79
2023/05/13 11:01:30;;;;;;;10.30;10.00;;;14.00;99.90;;;;;;4927914;29;20231;-79
2023/05/13 11:04:00;;;;;;;10.40;10.10;;;14.00;99.90;;;;;;4927711;29;20232;-79
2023/05/13 11:06:33;;;;;;;10.20;9.90;;;14.10;99.90;;;;;;4928233;29;20310;-79
2023/05/13 11:09:06;;;;;;;10.43;10.13;;;14.10;99.90;;;;;;4927745;29;20231;-79
2023/05/13 11:11:35;;;;;;;10.50;10.20;;;14.20;99.90;;;;;;4927450;29;20284;-78
2023/05/13 11:14:16;;;;;;;10.50;10.20;;;14.20;99.90;;;;;;4927705;29;20247;-79
2023/05/13 11:16:50;;;;;;;10.20;9.90;;;14.30;99.90;;;;;;4927071;29;20235;-79
2023/05/13 11:19:22;;;;;;;10.30;10.00;;;14.50;99.90;;;;;;4927982;29;20239;-79
2023/05/13 11:21:53;;;;;;;10.20;9.90;;;14.80;99.90;;;;;;4928012;29;20311;-79
2023/05/13 11:24:23;;;;;;;10.30;10.00;;;15.20;99.90;;;;;;4928402;29;20252;-79
2023/05/13 11:26:55;;;;;;;10.70;10.40;;;15.50;99.90;;;;;;4928988;29;20268;-78
2023/05/13 11:29:31;;;;;;;10.50;10.20;;;15.70;99.90;;;;;;4932710;29;20323;-79
2023/05/13 11:31:59;;;;;;;10.38;10.07;;;16.00;99.90;;;;;;4927571;29;20295;-79
2023/05/13 11:34:27;;;;;;;10.48;10.18;;;16.30;99.90;;;;;;4927419;29;20247;-80
2023/05/13 11:37:07;;;;;;;10.50;10.20;;;16.50;99.90;;;;;;4927086;29;20320;-80
2023/05/13 11:39:38;;;;;;;10.27;9.98;;;16.40;99.90;;;;;;4927152;29;20227;-79
2023/05/13 11:42:09;;;;;;;10.40;10.10;;;16.30;99.90;;;;;;4927458;29;20265;-79
2023/05/13 11:44:45;;;;;;;10.48;10.18;;;16.10;99.90;;;;;;4926890;29;20251;-79
2023/05/13 11:47:12;;;;;;;10.50;10.20;;;15.70;99.90;;;;;;4928494;29;20227;-79
2023/05/13 11:49:42;;;;;;;10.40;10.10;;;15.40;99.90;;;;;;4927129;29;20323;-79
2023/05/13 11:52:12;;;;;;;10.40;10.10;;;15.20;99.90;;;;;;4927825;29;20684;-79
2023/05/13 11:54:50;;;;;;;10.30;10.00;;;15.10;99.90;;;;;;4934742;29;20267;-79
2023/05/13 11:57:23;;;;;;;10.35;10.05;;;14.90;99.90;;;;;;4927241;29;20242;-80
2023/05/13 11:59:55;;;;;;;10.13;9.82;;;14.90;99.90;;;;;;4926798;29;20232;-79
2023/05/13 12:02:26;;;;;;;10.00;9.70;;;14.90;99.90;;;;;;4926812;29;20288;-79
2023/05/13 12:04:53;;;;;;;10.10;9.80;;;14.90;99.90;;;;;;4927029;29;20239;-79
2023/05/13 12:07:23;;;;;;;9.93;9.63;;;15.00;99.90;;;;;;4927101;29;20239;-79
2023/05/13 12:09:57;;;;;;;9.90;9.60;;;15.10;99.90;;;;;;4926716;29;20228;-80
2023/05/13 12:12:25;;;;;;;9.93;9.63;;;15.30;99.90;;;;;;4927993;29;20243;-80
2023/05/13 12:14:54;;;;;;;9.93;9.63;;;15.50;99.90;;;;;;4926903;29;20239;-79
2023/05/13 12:17:22;;;;;;;10.00;9.70;;;15.70;99.90;;;;;;4927559;29;20234;-80
2023/05/13 12:20:24;;;;;;;10.20;9.90;;;15.70;99.90;;;;;;4926657;29;20259;-79
2023/05/13 12:22:56;;;;;;;9.98;9.68;;;15.70;99.90;;;;;;4840027;29;20272;-80
2023/05/13 12:25:46;;;;;;;10.18;9.88;;;15.60;99.90;;;;;;4836992;29;20298;-79
2023/05/13 12:28:16;;;;;;;10.18;9.88;;;15.60;99.90;;;;;;4897969;29;20904;-80
2023/05/13 12:30:50;;;;;;;10.30;10.00;;;15.50;99.90;;;;;;4930616;29;20231;-79
2023/05/13 12:33:20;;;;;;;10.05;9.75;;;15.40;99.90;;;;;;4931304;29;20272;-79
2023/05/13 12:35:52;;;;;;;9.93;9.63;;;15.40;99.90;;;;;;4931387;29;20246;-80
2023/05/13 12:38:21;;;;;;;10.10;9.80;;;15.50;99.90;;;;;;4930887;29;20235;-78
2023/05/13 12:40:51;;;;;;;10.15;9.85;;;15.80;99.90;;;;;;4930966;29;20338;-79
2023/05/13 12:43:20;;;;;;;10.20;9.90;;;16.10;99.90;;;;;;4932327;29;20358;-79
2023/05/13 12:45:53;;;;;;;10.40;10.10;;;16.50;99.90;;;;;;4934231;29;20243;-79
2023/05/13 12:48:25;;;;;;;10.20;9.90;;;16.60;99.90;;;;;;4934542;29;20236;-80
2023/05/13 12:50:52;;;;;;;10.15;9.85;;;16.70;99.90;;;;;;4934933;29;20288;-79
2023/05/13 12:53:20;;;;;;;10.18;9.88;;;16.80;99.90;;;;;;4934863;29;20299;-80
2023/05/13 12:55:49;;;;;;;10.20;9.90;;;16.70;99.90;;;;;;4934505;29;20258;-79
2023/05/13 12:58:17;;;;;;;10.30;10.00;;;16.50;99.90;;;;;;4935288;29;20232;-80
2023/05/13 13:00:44;;;;;;;10.00;9.70;;;16.50;99.90;;;;;;4935120;29;20251;-79
2023/05/13 13:03:12;;;;;;;10.07;9.77;;;16.50;99.90;;;;;;4934382;29;20326;-79
2023/05/13 13:05:39;;;;;;;10.40;10.10;;;16.50;99.90;;;;;;4934634;29;20246;-79
2023/05/13 13:08:07;;;;;;;10.13;9.82;;;16.60;99.90;;;;;;4934600;29;20232;-80
2023/05/13 13:10:34;;;;;;;9.80;9.50;;;16.40;99.90;;;;;;4934092;29;20224;-79
2023/05/13 13:13:03;;;;;;;10.00;9.70;;;16.50;99.90;;;;;;4935626;29;20247;-79
2023/05/13 13:15:31;;;;;;;9.73;9.43;;;16.70;99.90;;;;;;4934712;29;20274;-80
2023/05/13 13:17:59;;;;;;;9.90;9.60;;;16.70;99.90;;;;;;4933531;29;20255;-79
2023/05/13 13:20:26;;;;;;;9.65;9.35;;;16.90;99.90;;;;;;4933630;29;20399;-79
2023/05/13 13:22:54;;;;;;;10.20;9.90;;;17.00;99.90;;;;;;4931805;29;20239;-79
2023/05/13 13:25:22;;;;;;;10.45;10.15;;;17.10;99.90;;;;;;4925591;29;20250;-80
2023/05/13 13:27:49;;;;;;;10.18;9.88;;;17.40;99.90;;;;;;4925512;29;20282;-79
2023/05/13 13:30:18;;;;;;;10.38;10.07;;;17.60;99.90;;;;;;4925616;29;20234;-80
2023/05/13 13:32:46;;;;;;;10.40;10.10;;;17.90;99.90;;;;;;4925562;29;20240;-79
2023/05/13 13:35:14;;;;;;;10.07;9.77;;;18.10;99.90;;;;;;4925489;29;20266;-80
2023/05/13 13:37:41;;;;;;;10.55;10.25;;;18.30;99.90;;;;;;4925220;29;20384;-80
2023/05/13 13:40:11;;;;;;;10.13;9.82;;;18.60;99.90;;;;;;4926119;29;20318;-80
2023/05/13 13:42:38;;;;;;;9.88;9.57;;;18.90;99.90;;;;;;4925600;29;20239;-79